Block Island, RI (02807)

10:43 AM EDT on September 01, 2014 (GMT -0400)
Block Island Water Tower | Change Station
CLOSE
Current Station
Personal Weather Station
Location: New Shoreham, RI
Elevation: 145 ft
Nearby Weather Stations

Elev 145 ft 41.16 °N, 71.57 °W | Updated 1 second ago

Overcast
Overcast
70.0 °F
Feels Like 70.0 °F
N
11.9
Wind Variable Wind from South
Gusts 16.0 mph

Today
High -- | Low -- °F
--% Chance of Precip.
Yesterday
High -- | Low -- °F
Precip. -- in
6:12 AM 7:19 PM
Waxing Crescent, 41% visible
Pressure 30.02 in
Visibility 10.0 miles
Clouds Overcast 400 ft
Dew Point 68 °F
Humidity 95%
Rainfall 0.00 in
Snow Depth Not available.
UV 2 out of 12
Pollen 4.30 out of 12
Air Quality Not available.
Flu Activity Not available.
METAR KBID 011435Z AUTO 23012KT 10SM OVC004 23/20 A3002 RMK AO1

More Conditions Fewer Conditions

Pressure 30.02 in
Visibility 10.0 miles
Clouds Overcast 400 ft
Dew Point 68 °F
Humidity 95%
Rainfall 0.00 in
Snow Depth Not available.
UV 2 out of 12
Pollen 4.30 out of 12
Air Quality Not available.
Flu Activity Not available.
METAR KBID 011435Z AUTO 23012KT 10SM OVC004 23/20 A3002 RMK AO1

More Conditions Fewer Conditions

10-Day Weather Forecast

Almanac

Astronomy

Sep. 01, 2014 Rise Set
Actual Time 6:12 AM EDT 7:19 PM EDT
Civil Twilight 5:44 AM EDT 7:47 PM EDT
Nautical Twilight 5:10 AM EDT 8:20 PM EDT
Astronomical Twilight 4:35 AM EDT 8:56 PM EDT
Moon 12:59 PM EDT 11:13 PM EDT
Length of Visible Light 14h 02m
Length of Day
13h 06m
Tomorrow will be 2m 38s shorter.
Waxing Crescent, 41% of the Moon is Illuminated
Today
Waxing Crescent
Sep 2
First Quarter
Sep 8
Full
Sep 15
Last Quarter
Sep 24
New

Today's Extremes

State Highs State Lows

Community

WunderPhotos

Upload Photos

1,749,253 photos uploaded!

Nearby

Snow Depth

Station Depth Elevation
No new snow has been reported.

Earthquake Activity

City Distance Mag. Time & Date
No recent earthquake activity has been reported nearby.
Minimum magnitude displayed is 2.5.

Coastal Water Temperatures

Place Temperature
Newport, RI 69.1 °F
New London, CT 71.1 °F
Quonset Point, RI 72.0 °F

Nearby Weather Stations